sensor_id;sensor_type;location;lat;lon;timestamp;pressure;altitude;pressure_sealevel;temperature;humidity
55277;BME280;41136;51.478;-2.610;2023-04-25T00:02:02;100764.12;;;5.20;100.00
55277;BME280;41136;51.478;-2.610;2023-04-25T00:04:28;100766.60;;;5.14;100.00
55277;BME280;41136;51.478;-2.610;2023-04-25T00:06:53;100770.13;;;5.25;100.00
55277;BME280;41136;51.478;-2.610;2023-04-25T00:09:18;100765.71;;;6.39;100.00
55277;BME280;41136;51.478;-2.610;2023-04-25T00:11:43;100766.93;;;6.20;100.00
55277;BME280;41136;51.478;-2.610;2023-04-25T00:14:08;100767.65;;;6.81;100.00
55277;BME280;41136;51.478;-2.610;2023-04-25T00:16:33;100761.37;;;6.38;100.00
55277;BME280;41136;51.478;-2.610;2023-04-25T00:18:58;100766.50;;;5.30;100.00
55277;BME280;41136;51.478;-2.610;2023-04-25T00:21:24;100770.41;;;5.52;100.00
55277;BME280;41136;51.478;-2.610;2023-04-25T00:23:49;100775.34;;;4.51;100.00
55277;BME280;41136;51.478;-2.610;2023-04-25T00:26:14;100776.39;;;5.37;100.00
55277;BME280;41136;51.478;-2.610;2023-04-25T00:28:40;100778.98;;;5.79;100.00
55277;BME280;41136;51.478;-2.610;2023-04-25T00:31:05;100779.57;;;6.50;100.00
55277;BME280;41136;51.478;-2.610;2023-04-25T00:33:30;100780.68;;;6.61;100.00
55277;BME280;41136;51.478;-2.610;2023-04-25T00:35:56;100784.20;;;6.67;100.00
55277;BME280;41136;51.478;-2.610;2023-04-25T00:38:21;100782.39;;;7.13;100.00
55277;BME280;41136;51.478;-2.610;2023-04-25T00:40:46;100785.24;;;6.56;100.00
55277;BME280;41136;51.478;-2.610;2023-04-25T00:43:12;100785.60;;;6.81;100.00
55277;BME280;41136;51.478;-2.610;2023-04-25T00:45:39;100785.15;;;6.90;100.00
55277;BME280;41136;51.478;-2.610;2023-04-25T00:48:04;100785.33;;;5.75;100.00
55277;BME280;41136;51.478;-2.610;2023-04-25T00:50:28;100792.17;;;5.64;100.00
55277;BME280;41136;51.478;-2.610;2023-04-25T00:52:54;100790.26;;;5.42;100.00
55277;BME280;41136;51.478;-2.610;2023-04-25T00:55:19;100789.95;;;6.48;100.00
55277;BME280;41136;51.478;-2.610;2023-04-25T00:57:44;100788.31;;;6.83;100.00
55277;BME280;41136;51.478;-2.610;2023-04-25T01:00:11;100789.60;;;6.14;100.00
55277;BME280;41136;51.478;-2.610;2023-04-25T01:02:35;100787.56;;;7.38;100.00
55277;BME280;41136;51.478;-2.610;2023-04-25T01:05:00;100791.13;;;6.72;100.00
55277;BME280;41136;51.478;-2.610;2023-04-25T01:07:26;100790.28;;;7.26;100.00
55277;BME280;41136;51.478;-2.610;2023-04-25T01:09:52;100795.15;;;6.40;100.00
55277;BME280;41136;51.478;-2.610;2023-04-25T01:12:17;100797.49;;;6.34;100.00
55277;BME280;41136;51.478;-2.610;2023-04-25T01:14:42;100797.86;;;5.90;100.00
55277;BME280;41136;51.478;-2.610;2023-04-25T01:17:08;100798.50;;;6.95;100.00
55277;BME280;41136;51.478;-2.610;2023-04-25T01:19:32;100798.57;;;8.63;100.00
55277;BME280;41136;51.478;-2.610;2023-04-25T01:25:31;100795.39;;;8.31;100.00
55277;BME280;41136;51.478;-2.610;2023-04-25T01:27:57;100791.39;;;8.35;100.00
55277;BME280;41136;51.478;-2.610;2023-04-25T01:30:21;100795.43;;;8.35;100.00
55277;BME280;41136;51.478;-2.610;2023-04-25T01:32:47;100795.93;;;8.52;100.00
55277;BME280;41136;51.478;-2.610;2023-04-25T01:35:12;100796.20;;;9.06;100.00
55277;BME280;41136;51.478;-2.610;2023-04-25T01:37:38;100796.27;;;9.18;100.00
55277;BME280;41136;51.478;-2.610;2023-04-25T01:40:04;100792.99;;;8.90;100.00
55277;BME280;41136;51.478;-2.610;2023-04-25T01:42:28;100801.43;;;9.87;100.00
55277;BME280;41136;51.478;-2.610;2023-04-25T01:44:54;100805.54;;;9.49;100.00
55277;BME280;41136;51.478;-2.610;2023-04-25T01:47:19;100803.10;;;9.13;100.00
55277;BME280;41136;51.478;-2.610;2023-04-25T01:49:44;100801.36;;;9.61;100.00
55277;BME280;41136;51.478;-2.610;2023-04-25T01:52:10;100806.93;;;9.28;100.00
55277;BME280;41136;51.478;-2.610;2023-04-25T01:54:35;100810.63;;;9.14;100.00
55277;BME280;41136;51.478;-2.610;2023-04-25T01:57:00;100814.06;;;8.66;100.00
55277;BME280;41136;51.478;-2.610;2023-04-25T01:59:26;100815.30;;;9.06;100.00
55277;BME280;41136;51.478;-2.610;2023-04-25T02:01:51;100816.73;;;8.59;100.00
55277;BME280;41136;51.478;-2.610;2023-04-25T02:04:16;100821.62;;;7.93;100.00
55277;BME280;41136;51.478;-2.610;2023-04-25T02:06:42;100818.95;;;7.50;100.00
55277;BME280;41136;51.478;-2.610;2023-04-25T02:09:06;100826.61;;;6.69;100.00
55277;BME280;41136;51.478;-2.610;2023-04-25T02:11:32;100827.30;;;7.57;100.00
55277;BME280;41136;51.478;-2.610;2023-04-25T02:13:58;100824.75;;;7.25;100.00
55277;BME280;41136;51.478;-2.610;2023-04-25T02:16:23;100819.25;;;7.30;100.00
55277;BME280;41136;51.478;-2.610;2023-04-25T02:18:49;100822.39;;;8.05;100.00
55277;BME280;41136;51.478;-2.610;2023-04-25T02:21:14;100824.13;;;8.80;100.00
55277;BME280;41136;51.478;-2.610;2023-04-25T02:23:40;100824.18;;;8.70;100.00
55277;BME280;41136;51.478;-2.610;2023-04-25T02:26:05;100825.73;;;8.67;100.00
55277;BME280;41136;51.478;-2.610;2023-04-25T02:28:30;100826.77;;;7.07;100.00
55277;BME280;41136;51.478;-2.610;2023-04-25T02:30:56;100829.70;;;7.46;100.00
55277;BME280;41136;51.478;-2.610;2023-04-25T02:33:21;100828.19;;;8.95;100.00
55277;BME280;41136;51.478;-2.610;2023-04-25T02:35:46;100824.55;;;8.59;100.00
55277;BME280;41136;51.478;-2.610;2023-04-25T02:38:11;100824.93;;;8.70;100.00
55277;BME280;41136;51.478;-2.610;2023-04-25T02:40:37;100826.62;;;8.39;100.00
55277;BME280;41136;51.478;-2.610;2023-04-25T02:43:03;100827.58;;;8.83;100.00
55277;BME280;41136;51.478;-2.610;2023-04-25T02:45:28;100831.29;;;8.78;100.00
55277;BME280;41136;51.478;-2.610;2023-04-25T02:47:54;100828.55;;;8.94;100.00
55277;BME280;41136;51.478;-2.610;2023-04-25T02:50:19;100833.64;;;8.59;100.00
55277;BME280;41136;51.478;-2.610;2023-04-25T02:52:44;100831.92;;;8.87;100.00
55277;BME280;41136;51.478;-2.610;2023-04-25T02:55:09;100837.91;;;8.93;100.00
55277;BME280;41136;51.478;-2.610;2023-04-25T02:57:34;100839.40;;;8.91;100.00
55277;BME280;41136;51.478;-2.610;2023-04-25T03:00:00;100843.32;;;9.49;100.00
55277;BME280;41136;51.478;-2.610;2023-04-25T03:02:25;100844.58;;;9.15;99.73
55277;BME280;41136;51.478;-2.610;2023-04-25T03:04:50;100844.70;;;8.69;99.95
55277;BME280;41136;51.478;-2.610;2023-04-25T03:07:16;100841.31;;;8.96;99.00
55277;BME280;41136;51.478;-2.610;2023-04-25T03:09:41;100844.94;;;8.22;99.97
55277;BME280;41136;51.478;-2.610;2023-04-25T03:12:07;100849.81;;;8.47;99.13
55277;BME280;41136;51.478;-2.610;2023-04-25T03:14:33;100853.04;;;8.38;98.36
55277;BME280;41136;51.478;-2.610;2023-04-25T03:16:57;100853.82;;;8.49;96.79
55277;BME280;41136;51.478;-2.610;2023-04-25T03:19:23;100856.91;;;8.46;98.05
55277;BME280;41136;51.478;-2.610;2023-04-25T03:21:48;100861.44;;;8.24;97.61
55277;BME280;41136;51.478;-2.610;2023-04-25T03:24:13;100867.26;;;8.32;97.60
55277;BME280;41136;51.478;-2.610;2023-04-25T03:26:38;100863.54;;;8.32;96.94
55277;BME280;41136;51.478;-2.610;2023-04-25T03:29:04;100865.56;;;8.70;94.93
55277;BME280;41136;51.478;-2.610;2023-04-25T03:31:30;100862.28;;;8.26;94.92
55277;BME280;41136;51.478;-2.610;2023-04-25T03:33:55;100863.06;;;8.13;94.76
55277;BME280;41136;51.478;-2.610;2023-04-25T03:36:20;100861.42;;;8.26;94.98
55277;BME280;41136;51.478;-2.610;2023-04-25T03:38:45;100865.11;;;8.53;94.58
55277;BME280;41136;51.478;-2.610;2023-04-25T03:41:10;100868.44;;;7.88;94.94
55277;BME280;41136;51.478;-2.610;2023-04-25T03:43:36;100870.62;;;8.25;94.44
55277;BME280;41136;51.478;-2.610;2023-04-25T03:46:01;100868.30;;;8.24;94.27
55277;BME280;41136;51.478;-2.610;2023-04-25T03:48:27;100874.00;;;8.13;94.21
55277;BME280;41136;51.478;-2.610;2023-04-25T03:50:52;100872.92;;;8.05;93.78
55277;BME280;41136;51.478;-2.610;2023-04-25T03:53:18;100878.53;;;8.01;94.53
55277;BME280;41136;51.478;-2.610;2023-04-25T03:55:43;100879.83;;;8.23;93.55
55277;BME280;41136;51.478;-2.610;2023-04-25T03:58:09;100883.51;;;8.03;94.23
55277;BME280;41136;51.478;-2.610;2023-04-25T04:00:34;100886.94;;;7.79;94.95
55277;BME280;41136;51.478;-2.610;2023-04-25T04:03:00;100888.04;;;7.74;94.40
55277;BME280;41136;51.478;-2.610;2023-04-25T04:05:25;100885.39;;;7.88;94.46
55277;BME280;41136;51.478;-2.610;2023-04-25T04:07:51;100885.87;;;7.62;93.84
55277;BME280;41136;51.478;-2.610;2023-04-25T04:10:16;100891.95;;;8.05;94.08
55277;BME280;41136;51.478;-2.610;2023-04-25T04:12:41;100895.88;;;7.92;93.77
55277;BME280;41136;51.478;-2.610;2023-04-25T04:15:08;100897.16;;;8.06;93.12
55277;BME280;41136;51.478;-2.610;2023-04-25T04:17:33;100901.66;;;8.01;93.46
55277;BME280;41136;51.478;-2.610;2023-04-25T04:19:58;100905.90;;;7.89;94.04
55277;BME280;41136;51.478;-2.610;2023-04-25T04:22:23;100905.88;;;7.83;93.66
55277;BME280;41136;51.478;-2.610;2023-04-25T04:24:49;100909.64;;;7.41;95.09
55277;BME280;41136;51.478;-2.610;2023-04-25T04:27:14;100916.73;;;7.53;94.54
55277;BME280;41136;51.478;-2.610;2023-04-25T04:29:40;100923.30;;;7.42;94.52
55277;BME280;41136;51.478;-2.610;2023-04-25T04:32:05;100925.82;;;7.08;95.99
55277;BME280;41136;51.478;-2.610;2023-04-25T04:36:06;100921.32;;;7.55;93.09
55277;BME280;41136;51.478;-2.610;2023-04-25T04:44:52;100927.45;;;7.70;89.77
55277;BME280;41136;51.478;-2.610;2023-04-25T04:47:17;100927.39;;;7.19;90.88
55277;BME280;41136;51.478;-2.610;2023-04-25T04:49:42;100929.00;;;7.17;91.98
55277;BME280;41136;51.478;-2.610;2023-04-25T04:52:07;100929.29;;;7.09;91.26
55277;BME280;41136;51.478;-2.610;2023-04-25T04:54:33;100929.79;;;8.53;90.36
55277;BME280;41136;51.478;-2.610;2023-04-25T04:56:58;100931.59;;;7.79;93.02
55277;BME280;41136;51.478;-2.610;2023-04-25T04:59:24;100936.23;;;8.41;93.94
55277;BME280;41136;51.478;-2.610;2023-04-25T05:01:49;100943.01;;;7.95;93.90
55277;BME280;41136;51.478;-2.610;2023-04-25T05:04:15;100948.70;;;7.12;95.30
55277;BME280;41136;51.478;-2.610;2023-04-25T05:06:40;100956.82;;;6.74;95.42
55277;BME280;41136;51.478;-2.610;2023-04-25T05:09:05;100959.13;;;6.69;97.72
55277;BME280;41136;51.478;-2.610;2023-04-25T05:11:30;100961.41;;;6.92;98.57
55277;BME280;41136;51.478;-2.610;2023-04-25T05:13:55;100967.15;;;6.77;98.75
55277;BME280;41136;51.478;-2.610;2023-04-25T05:16:21;100970.79;;;6.81;98.91
55277;BME280;41136;51.478;-2.610;2023-04-25T05:18:47;100973.83;;;7.10;97.64
55277;BME280;41136;51.478;-2.610;2023-04-25T05:21:12;100974.60;;;7.05;98.46
55277;BME280;41136;51.478;-2.610;2023-04-25T05:23:37;100977.36;;;7.07;98.92
55277;BME280;41136;51.478;-2.610;2023-04-25T05:26:02;100977.93;;;6.16;100.00
55277;BME280;41136;51.478;-2.610;2023-04-25T05:28:27;100976.86;;;6.79;100.00
55277;BME280;41136;51.478;-2.610;2023-04-25T05:30:53;100980.42;;;6.27;100.00
55277;BME280;41136;51.478;-2.610;2023-04-25T05:33:18;100980.31;;;7.48;99.42
55277;BME280;41136;51.478;-2.610;2023-04-25T05:35:44;100978.75;;;7.77;98.39
55277;BME280;41136;51.478;-2.610;2023-04-25T05:38:09;100977.72;;;7.70;98.10
55277;BME280;41136;51.478;-2.610;2023-04-25T05:40:34;100978.18;;;7.82;97.76
55277;BME280;41136;51.478;-2.610;2023-04-25T05:43:00;100981.37;;;8.01;97.01
55277;BME280;41136;51.478;-2.610;2023-04-25T05:45:25;100982.38;;;7.87;97.23
55277;BME280;41136;51.478;-2.610;2023-04-25T05:47:50;100984.11;;;7.51;98.41
55277;BME280;41136;51.478;-2.610;2023-04-25T05:50:16;100985.77;;;7.44;98.04
55277;BME280;41136;51.478;-2.610;2023-04-25T05:52:42;100991.48;;;7.53;99.61
55277;BME280;41136;51.478;-2.610;2023-04-25T05:55:08;100995.17;;;7.57;99.54
55277;BME280;41136;51.478;-2.610;2023-04-25T05:57:33;101001.32;;;7.57;99.43
55277;BME280;41136;51.478;-2.610;2023-04-25T05:59:58;101005.85;;;8.49;97.62
55277;BME280;41136;51.478;-2.610;2023-04-25T06:02:23;101006.56;;;7.93;98.15
55277;BME280;41136;51.478;-2.610;2023-04-25T06:04:49;101015.16;;;6.59;99.01
55277;BME280;41136;51.478;-2.610;2023-04-25T06:07:14;101022.50;;;6.89;100.00
55277;BME280;41136;51.478;-2.610;2023-04-25T06:09:39;101024.44;;;6.53;100.00
55277;BME280;41136;51.478;-2.610;2023-04-25T06:12:05;101019.66;;;7.07;100.00
55277;BME280;41136;51.478;-2.610;2023-04-25T06:14:30;101021.92;;;6.64;100.00
55277;BME280;41136;51.478;-2.610;2023-04-25T06:16:55;101026.78;;;6.26;100.00
55277;BME280;41136;51.478;-2.610;2023-04-25T06:19:28;101029.46;;;6.05;100.00
55277;BME280;41136;51.478;-2.610;2023-04-25T06:21:46;101036.32;;;6.18;100.00
55277;BME280;41136;51.478;-2.610;2023-04-25T06:24:11;101033.24;;;6.14;100.00
55277;BME280;41136;51.478;-2.610;2023-04-25T06:26:36;101031.56;;;6.42;100.00
55277;BME280;41136;51.478;-2.610;2023-04-25T06:29:02;101033.37;;;6.24;100.00
55277;BME280;41136;51.478;-2.610;2023-04-25T06:31:28;101033.63;;;6.64;100.00
55277;BME280;41136;51.478;-2.610;2023-04-25T06:33:53;101033.21;;;6.48;100.00
55277;BME280;41136;51.478;-2.610;2023-04-25T06:36:19;101036.96;;;5.53;100.00
55277;BME280;41136;51.478;-2.610;2023-04-25T06:38:44;101032.48;;;5.12;100.00
55277;BME280;41136;51.478;-2.610;2023-04-25T06:41:09;101033.74;;;4.19;100.00
55277;BME280;41136;51.478;-2.610;2023-04-25T06:43:35;101033.71;;;5.40;100.00
55277;BME280;41136;51.478;-2.610;2023-04-25T06:46:00;101031.68;;;5.59;100.00
55277;BME280;41136;51.478;-2.610;2023-04-25T06:48:26;101033.56;;;6.54;100.00
55277;BME280;41136;51.478;-2.610;2023-04-25T06:50:51;101035.08;;;7.30;100.00
55277;BME280;41136;51.478;-2.610;2023-04-25T06:53:17;101035.01;;;7.01;100.00
55277;BME280;41136;51.478;-2.610;2023-04-25T06:55:42;101036.13;;;7.47;100.00
55277;BME280;41136;51.478;-2.610;2023-04-25T06:58:07;101034.79;;;6.72;100.00
55277;BME280;41136;51.478;-2.610;2023-04-25T07:00:32;101027.81;;;7.73;100.00
55277;BME280;41136;51.478;-2.610;2023-04-25T07:02:58;101032.46;;;6.53;100.00
55277;BME280;41136;51.478;-2.610;2023-04-25T07:05:23;101033.11;;;7.08;100.00
55277;BME280;41136;51.478;-2.610;2023-04-25T07:07:48;101029.15;;;7.57;100.00
55277;BME280;41136;51.478;-2.610;2023-04-25T07:10:14;101030.49;;;7.74;100.00
55277;BME280;41136;51.478;-2.610;2023-04-25T07:12:39;101026.19;;;7.76;97.66
55277;BME280;41136;51.478;-2.610;2023-04-25T07:15:06;101031.45;;;7.35;99.23
55277;BME280;41136;51.478;-2.610;2023-04-25T07:17:30;101029.46;;;8.40;96.42
55277;BME280;41136;51.478;-2.610;2023-04-25T07:19:56;101032.68;;;7.52;94.81
55277;BME280;41136;51.478;-2.610;2023-04-25T07:22:21;101029.30;;;8.26;93.99
55277;BME280;41136;51.478;-2.610;2023-04-25T07:24:46;101033.46;;;8.45;93.19
55277;BME280;41136;51.478;-2.610;2023-04-25T07:27:11;101035.41;;;8.50;94.31
55277;BME280;41136;51.478;-2.610;2023-04-25T07:29:37;101040.95;;;9.16;94.24
55277;BME280;41136;51.478;-2.610;2023-04-25T07:32:02;101038.32;;;7.96;91.87
55277;BME280;41136;51.478;-2.610;2023-04-25T07:34:28;101040.72;;;8.55;89.39
55277;BME280;41136;51.478;-2.610;2023-04-25T07:36:53;101043.32;;;8.94;88.79
55277;BME280;41136;51.478;-2.610;2023-04-25T07:39:19;101042.73;;;9.12;87.14
55277;BME280;41136;51.478;-2.610;2023-04-25T07:41:44;101038.46;;;9.27;86.80
55277;BME280;41136;51.478;-2.610;2023-04-25T07:44:09;101037.99;;;8.97;84.39
55277;BME280;41136;51.478;-2.610;2023-04-25T07:46:35;101041.96;;;8.82;86.15
55277;BME280;41136;51.478;-2.610;2023-04-25T07:49:00;101044.50;;;8.87;86.40
55277;BME280;41136;51.478;-2.610;2023-04-25T07:51:26;101045.16;;;8.32;86.37
55277;BME280;41136;51.478;-2.610;2023-04-25T07:53:51;101044.40;;;9.36;85.45
55277;BME280;41136;51.478;-2.610;2023-04-25T07:56:17;101044.85;;;9.28;85.70
55277;BME280;41136;51.478;-2.610;2023-04-25T07:58:42;101048.38;;;9.85;84.04
55277;BME280;41136;51.478;-2.610;2023-04-25T08:01:07;101047.60;;;9.39;85.55
55277;BME280;41136;51.478;-2.610;2023-04-25T08:03:33;101045.22;;;10.37;85.25
55277;BME280;41136;51.478;-2.610;2023-04-25T08:05:58;101044.00;;;10.63;86.29
55277;BME280;41136;51.478;-2.610;2023-04-25T08:08:24;101042.93;;;10.54;83.00
55277;BME280;41136;51.478;-2.610;2023-04-25T08:10:49;101038.79;;;10.16;81.30
55277;BME280;41136;51.478;-2.610;2023-04-25T08:13:15;101040.49;;;8.98;75.95
55277;BME280;41136;51.478;-2.610;2023-04-25T08:15:40;101042.37;;;8.94;78.23
55277;BME280;41136;51.478;-2.610;2023-04-25T08:18:05;101042.64;;;10.04;83.44
55277;BME280;41136;51.478;-2.610;2023-04-25T08:20:31;101040.11;;;10.60;83.16
55277;BME280;41136;51.478;-2.610;2023-04-25T08:22:56;101043.16;;;10.90;78.47
55277;BME280;41136;51.478;-2.610;2023-04-25T08:25:22;101042.79;;;11.59;78.99
55277;BME280;41136;51.478;-2.610;2023-04-25T08:27:47;101040.23;;;12.37;74.09
55277;BME280;41136;51.478;-2.610;2023-04-25T08:30:12;101041.94;;;11.85;69.31
55277;BME280;41136;51.478;-2.610;2023-04-25T08:32:37;101042.40;;;11.83;68.99
55277;BME280;41136;51.478;-2.610;2023-04-25T08:35:03;101045.52;;;12.40;64.53
55277;BME280;41136;51.478;-2.610;2023-04-25T08:37:28;101047.01;;;12.53;60.98
55277;BME280;41136;51.478;-2.610;2023-04-25T08:39:53;101052.52;;;11.36;59.70
55277;BME280;41136;51.478;-2.610;2023-04-25T08:42:19;101052.52;;;12.47;64.56
55277;BME280;41136;51.478;-2.610;2023-04-25T08:44:45;101050.11;;;11.83;59.56
55277;BME280;41136;51.478;-2.610;2023-04-25T08:47:09;101050.94;;;12.91;59.09
55277;BME280;41136;51.478;-2.610;2023-04-25T08:49:35;101050.46;;;12.87;60.97
55277;BME280;41136;51.478;-2.610;2023-04-25T08:52:02;101051.92;;;12.70;64.29
55277;BME280;41136;51.478;-2.610;2023-04-25T08:54:27;101051.90;;;12.45;56.57
55277;BME280;41136;51.478;-2.610;2023-04-25T08:56:51;101050.62;;;11.71;54.43
55277;BME280;41136;51.478;-2.610;2023-04-25T08:59:17;101051.94;;;11.73;55.99
55277;BME280;41136;51.478;-2.610;2023-04-25T09:01:42;101050.05;;;12.61;57.58
55277;BME280;41136;51.478;-2.610;2023-04-25T09:04:07;101049.03;;;12.52;55.65
55277;BME280;41136;51.478;-2.610;2023-04-25T09:06:33;101046.36;;;12.27;51.98
55277;BME280;41136;51.478;-2.610;2023-04-25T09:09:02;101041.47;;;12.71;51.07
55277;BME280;41136;51.478;-2.610;2023-04-25T09:11:23;101038.69;;;12.96;52.94
55277;BME280;41136;51.478;-2.610;2023-04-25T09:13:49;101034.65;;;12.49;52.39
55277;BME280;41136;51.478;-2.610;2023-04-25T09:16:14;101037.44;;;12.84;56.23
55277;BME280;41136;51.478;-2.610;2023-04-25T09:18:39;101036.44;;;12.64;51.58
55277;BME280;41136;51.478;-2.610;2023-04-25T09:21:07;101038.53;;;12.27;52.71
55277;BME280;41136;51.478;-2.610;2023-04-25T09:23:31;101038.89;;;11.07;50.92
55277;BME280;41136;51.478;-2.610;2023-04-25T09:25:56;101040.53;;;8.53;54.45
55277;BME280;41136;51.478;-2.610;2023-04-25T09:28:26;101043.13;;;7.84;56.21
55277;BME280;41136;51.478;-2.610;2023-04-25T09:30:46;101041.25;;;9.53;64.00
55277;BME280;41136;51.478;-2.610;2023-04-25T09:33:12;101040.81;;;10.75;59.27
55277;BME280;41136;51.478;-2.610;2023-04-25T09:35:38;101047.19;;;11.30;57.72
55277;BME280;41136;51.478;-2.610;2023-04-25T09:38:08;101042.85;;;11.95;57.71
55277;BME280;41136;51.478;-2.610;2023-04-25T09:40:30;101046.51;;;10.76;53.37
55277;BME280;41136;51.478;-2.610;2023-04-25T09:42:53;101046.99;;;9.61;57.46
55277;BME280;41136;51.478;-2.610;2023-04-25T09:45:19;101047.11;;;7.81;57.51
55277;BME280;41136;51.478;-2.610;2023-04-25T09:47:44;101044.20;;;8.58;59.17
55277;BME280;41136;51.478;-2.610;2023-04-25T09:50:14;101047.53;;;7.33;60.65
55277;BME280;41136;51.478;-2.610;2023-04-25T09:52:35;101045.42;;;6.73;62.91
55277;BME280;41136;51.478;-2.610;2023-04-25T09:55:00;101040.96;;;8.46;66.15
55277;BME280;41136;51.478;-2.610;2023-04-25T09:57:26;101031.40;;;10.23;61.40
55277;BME280;41136;51.478;-2.610;2023-04-25T09:59:52;101033.91;;;10.36;57.36
55277;BME280;41136;51.478;-2.610;2023-04-25T10:02:18;101035.68;;;12.11;56.43
55277;BME280;41136;51.478;-2.610;2023-04-25T10:04:45;101032.03;;;12.14;52.13
55277;BME280;41136;51.478;-2.610;2023-04-25T10:07:08;101035.79;;;8.36;51.78
55277;BME280;41136;51.478;-2.610;2023-04-25T10:09:36;101037.35;;;9.09;54.57
55277;BME280;41136;51.478;-2.610;2023-04-25T10:11:58;101038.01;;;9.22;59.30
55277;BME280;41136;51.478;-2.610;2023-04-25T10:14:24;101034.63;;;10.74;55.32
55277;BME280;41136;51.478;-2.610;2023-04-25T10:16:49;101039.62;;;11.92;52.00
55277;BME280;41136;51.478;-2.610;2023-04-25T10:19:14;101040.24;;;11.73;51.11
55277;BME280;41136;51.478;-2.610;2023-04-25T10:21:46;101040.22;;;12.45;48.29
55277;BME280;41136;51.478;-2.610;2023-04-25T10:24:06;101043.40;;;12.30;49.48
55277;BME280;41136;51.478;-2.610;2023-04-25T10:26:30;101046.32;;;13.04;46.17
55277;BME280;41136;51.478;-2.610;2023-04-25T10:28:57;101050.74;;;10.80;47.54
55277;BME280;41136;51.478;-2.610;2023-04-25T10:31:21;101051.80;;;11.94;45.74
55277;BME280;41136;51.478;-2.610;2023-04-25T10:33:48;101051.60;;;8.50;47.73
55277;BME280;41136;51.478;-2.610;2023-04-25T10:36:13;101055.17;;;8.30;49.54
55277;BME280;41136;51.478;-2.610;2023-04-25T10:38:37;101054.00;;;9.75;49.86
55277;BME280;41136;51.478;-2.610;2023-04-25T10:41:03;101051.88;;;11.15;47.93
55277;BME280;41136;51.478;-2.610;2023-04-25T10:43:33;101056.50;;;11.77;46.45
55277;BME280;41136;51.478;-2.610;2023-04-25T10:45:53;101052.54;;;11.35;45.91
55277;BME280;41136;51.478;-2.610;2023-04-25T10:48:25;101056.27;;;11.69;46.07
55277;BME280;41136;51.478;-2.610;2023-04-25T10:50:44;101053.18;;;11.58;44.78
55277;BME280;41136;51.478;-2.610;2023-04-25T10:53:14;101049.37;;;11.87;46.10
55277;BME280;41136;51.478;-2.610;2023-04-25T10:58:00;101054.22;;;11.28;42.83
55277;BME280;41136;51.478;-2.610;2023-04-25T11:00:26;101051.21;;;11.94;45.11
55277;BME280;41136;51.478;-2.610;2023-04-25T11:02:53;101053.80;;;11.47;43.75
55277;BME280;41136;51.478;-2.610;2023-04-25T11:05:22;101052.00;;;11.64;43.72
55277;BME280;41136;51.478;-2.610;2023-04-25T11:07:47;101054.01;;;11.31;42.59
55277;BME280;41136;51.478;-2.610;2023-04-25T11:10:08;101045.34;;;12.00;43.07
55277;BME280;41136;51.478;-2.610;2023-04-25T11:12:33;101046.88;;;11.80;44.91
55277;BME280;41136;51.478;-2.610;2023-04-25T11:14:59;101044.43;;;12.02;43.80
55277;BME280;41136;51.478;-2.610;2023-04-25T11:17:25;101043.37;;;12.51;44.24
55277;BME280;41136;51.478;-2.610;2023-04-25T11:19:49;101040.97;;;12.56;43.58
55277;BME280;41136;51.478;-2.610;2023-04-25T11:22:14;101037.74;;;12.46;42.68
55277;BME280;41136;51.478;-2.610;2023-04-25T11:24:40;101043.83;;;11.95;42.19
55277;BME280;41136;51.478;-2.610;2023-04-25T11:27:05;101040.81;;;11.41;43.01
55277;BME280;41136;51.478;-2.610;2023-04-25T11:29:32;101038.86;;;11.38;42.58
55277;BME280;41136;51.478;-2.610;2023-04-25T11:31:56;101039.14;;;11.92;41.25
55277;BME280;41136;51.478;-2.610;2023-04-25T11:34:21;101043.21;;;11.67;40.47
55277;BME280;41136;51.478;-2.610;2023-04-25T11:36:47;101039.78;;;11.44;41.03
55277;BME280;41136;51.478;-2.610;2023-04-25T11:39:12;101042.56;;;11.96;41.59
55277;BME280;41136;51.478;-2.610;2023-04-25T11:41:38;101042.86;;;12.53;40.80
55277;BME280;41136;51.478;-2.610;2023-04-25T11:44:03;101044.44;;;11.88;41.96
55277;BME280;41136;51.478;-2.610;2023-04-25T11:46:28;101044.59;;;11.54;41.62
55277;BME280;41136;51.478;-2.610;2023-04-25T11:48:55;101044.94;;;12.23;41.97
55277;BME280;41136;51.478;-2.610;2023-04-25T11:51:19;101040.53;;;11.92;41.54
55277;BME280;41136;51.478;-2.610;2023-04-25T11:53:45;101038.83;;;12.37;42.93
55277;BME280;41136;51.478;-2.610;2023-04-25T11:56:10;101039.60;;;12.75;42.24
55277;BME280;41136;51.478;-2.610;2023-04-25T12:01:02;101044.21;;;12.85;43.25
55277;BME280;41136;51.478;-2.610;2023-04-25T12:03:26;101047.35;;;11.97;41.51
55277;BME280;41136;51.478;-2.610;2023-04-25T12:05:52;101048.49;;;12.03;41.64
55277;BME280;41136;51.478;-2.610;2023-04-25T12:08:17;101044.77;;;12.80;40.92
55277;BME280;41136;51.478;-2.610;2023-04-25T12:10:45;101046.76;;;13.03;42.20
55277;BME280;41136;51.478;-2.610;2023-04-25T12:15:33;101049.72;;;13.85;40.26
55277;BME280;41136;51.478;-2.610;2023-04-25T12:17:58;101054.43;;;13.53;38.58
55277;BME280;41136;51.478;-2.610;2023-04-25T12:20:25;101056.57;;;11.66;41.65
55277;BME280;41136;51.478;-2.610;2023-04-25T12:22:50;101058.78;;;12.92;42.27
55277;BME280;41136;51.478;-2.610;2023-04-25T12:27:40;101059.17;;;12.01;42.02
55277;BME280;41136;51.478;-2.610;2023-04-25T12:30:07;101063.49;;;9.53;42.78
55277;BME280;41136;51.478;-2.610;2023-04-25T12:32:30;101064.25;;;10.79;43.04
55277;BME280;41136;51.478;-2.610;2023-04-25T12:34:56;101061.74;;;11.83;41.77
55277;BME280;41136;51.478;-2.610;2023-04-25T12:37:21;101057.96;;;10.66;40.84
55277;BME280;41136;51.478;-2.610;2023-04-25T12:39:46;101052.71;;;10.24;40.41
55277;BME280;41136;51.478;-2.610;2023-04-25T12:42:12;101048.69;;;9.68;42.79
55277;BME280;41136;51.478;-2.610;2023-04-25T12:44:37;101047.46;;;11.81;42.28
55277;BME280;41136;51.478;-2.610;2023-04-25T12:47:03;101044.65;;;12.36;42.87
55277;BME280;41136;51.478;-2.610;2023-04-25T12:49:28;101045.83;;;12.22;42.08
55277;BME280;41136;51.478;-2.610;2023-04-25T12:51:53;101046.97;;;13.02;42.09
55277;BME280;41136;51.478;-2.610;2023-04-25T12:54:19;101044.72;;;13.27;41.51